DLH204 EDDF-EFRO
Flight info
| Callsign | DLH204 |
|---|---|
| Flight time | N/A |
| Altitude | 39000 |
| Route | MARUN3W MARUN Y150 TOLGI DCT GIMRU DCT KOPEX DCT KULUD DCT VERAG DCT ODHAF DCT MISMO DCT NEMGU |
| Aircraft | A20N/M-SDE2E3FGHIRWXY/LB1 |
Departure
| Time | 2026-05-07 00:11 |
|---|---|
| Airport | Frankfurt Main Airport (EDDF) |
Arrival
| Time | N/A |
|---|---|
| Airport | Rovaniemi Airport (EFRO) |
| Time | Latitude | Longitude | Altitude | Speed | Heading |
|---|---|---|---|---|---|
| 2026-05-07 00:01 | 50.04342 | 8.56349 | 363 ft | 20 kts | 63° |
| 2026-05-07 00:01 | 50.04390 | 8.56561 | 364 ft | 23 kts | 72° |
| 2026-05-07 00:01 | 50.04447 | 8.56808 | 362 ft | 25 kts | 69° |
| 2026-05-07 00:01 | 50.04512 | 8.57077 | 362 ft | 28 kts | 70° |
| 2026-05-07 00:02 | 50.04585 | 8.57380 | 365 ft | 31 kts | 71° |
| 2026-05-07 00:02 | 50.04657 | 8.57688 | 369 ft | 26 kts | 69° |
| 2026-05-07 00:02 | 50.04702 | 8.57935 | 372 ft | 19 kts | 107° |
| 2026-05-07 00:02 | 50.04608 | 8.58058 | 372 ft | 19 kts | 122° |
| 2026-05-07 00:03 | 50.04547 | 8.58207 | 371 ft | 14 kts | 139° |
| 2026-05-07 00:03 | 50.04544 | 8.58231 | 371 ft | 0 kts | 36° |
| 2026-05-07 00:03 | 50.04561 | 8.58243 | 371 ft | 6 kts | 26° |
| 2026-05-07 00:04 | 50.04578 | 8.58258 | 372 ft | 8 kts | 29° |
| 2026-05-07 00:04 | 50.04619 | 8.58334 | 373 ft | 11 kts | 66° |
| 2026-05-07 00:04 | 50.04651 | 8.58475 | 371 ft | 17 kts | 68° |
| 2026-05-07 00:05 | 50.04697 | 8.58663 | 370 ft | 18 kts | 80° |
| 2026-05-07 00:05 | 50.04682 | 8.58756 | 369 ft | 0 kts | 133° |
| 2026-05-07 00:07 | 50.04680 | 8.58757 | 369 ft | 1 kts | 140° |
| 2026-05-07 00:07 | 50.04657 | 8.58766 | 369 ft | 6 kts | 176° |
| 2026-05-07 00:07 | 50.04632 | 8.58756 | 369 ft | 8 kts | 203° |
| 2026-05-07 00:08 | 50.04629 | 8.58754 | 369 ft | 8 kts | 203° |
| 2026-05-07 00:08 | 50.04566 | 8.58693 | 370 ft | 13 kts | 220° |
| 2026-05-07 00:08 | 50.04495 | 8.58587 | 372 ft | 15 kts | 232° |
| 2026-05-07 00:08 | 50.04465 | 8.58491 | 371 ft | 0 kts | 248° |
| 2026-05-07 00:09 | 50.04463 | 8.58483 | 371 ft | 4 kts | 248° |
| 2026-05-07 00:10 | 50.04423 | 8.58329 | 369 ft | 46 kts | 249° |
| 2026-05-07 00:10 | 50.04224 | 8.57489 | 371 ft | 116 kts | 250° |
| 2026-05-07 00:10 | 50.03896 | 8.56057 | 366 ft | 169 kts | 251° |
| 2026-05-07 00:10 | 50.03482 | 8.54136 | 845 ft | 199 kts | 253° |
| 2026-05-07 00:11 | 50.03033 | 8.52045 | 2086 ft | 201 kts | 252° |
| 2026-05-07 00:11 | 50.02471 | 8.50100 | 3088 ft | 199 kts | 239° |
| 2026-05-07 00:11 | 50.01441 | 8.48596 | 3740 ft | 210 kts | 211° |
| 2026-05-07 00:11 | 50.00080 | 8.47914 | 4549 ft | 214 kts | 189° |
| 2026-05-07 00:12 | 49.98558 | 8.47657 | 4891 ft | 215 kts | 189° |
| 2026-05-07 00:12 | 49.97101 | 8.47364 | 5005 ft | 214 kts | 190° |
| 2026-05-07 00:12 | 49.95627 | 8.46945 | 5165 ft | 217 kts | 199° |
| 2026-05-07 00:12 | 49.94118 | 8.46200 | 5526 ft | 239 kts | 199° |
| 2026-05-07 00:13 | 49.92525 | 8.45375 | 6555 ft | 247 kts | 208° |
| 2026-05-07 00:13 | 49.91245 | 8.43723 | 7986 ft | 240 kts | 236° |
| 2026-05-07 00:13 | 49.90605 | 8.41306 | 9242 ft | 247 kts | 263° |
| 2026-05-07 00:13 | 49.90794 | 8.38647 | 10409 ft | 254 kts | 290° |
| 2026-05-07 00:14 | 49.91776 | 8.36327 | 11219 ft | 264 kts | 316° |
| 2026-05-07 00:14 | 49.93330 | 8.34859 | 11671 ft | 273 kts | 335° |
| 2026-05-07 00:14 | 49.94260 | 8.34277 | 11812 ft | 294 kts | 337° |
| 2026-05-07 00:15 | 49.95796 | 8.33369 | 11942 ft | 324 kts | 338° |
| 2026-05-07 00:15 | 49.97950 | 8.32084 | 12014 ft | 340 kts | 337° |
| 2026-05-07 00:15 | 50.00140 | 8.30726 | 12015 ft | 340 kts | 336° |
| 2026-05-07 00:15 | 50.02341 | 8.29329 | 12013 ft | 340 kts | 338° |
| 2026-05-07 00:16 | 50.04650 | 8.28537 | 12014 ft | 343 kts | 355° |
| 2026-05-07 00:16 | 50.07024 | 8.28918 | 12014 ft | 347 kts | 14° |
| 2026-05-07 00:16 | 50.09316 | 8.30139 | 12377 ft | 352 kts | 18° |
| 2026-05-07 00:16 | 50.11644 | 8.31375 | 13583 ft | 351 kts | 17° |
| 2026-05-07 00:17 | 50.13966 | 8.32587 | 14634 ft | 356 kts | 17° |
| 2026-05-07 00:17 | 50.16344 | 8.33825 | 15614 ft | 362 kts | 17° |
| 2026-05-07 00:17 | 50.18747 | 8.35078 | 16569 ft | 368 kts | 17° |
| 2026-05-07 00:17 | 50.21195 | 8.36359 | 17519 ft | 374 kts | 17° |
| 2026-05-07 00:18 | 50.23649 | 8.37645 | 18394 ft | 380 kts | 17° |
| 2026-05-07 00:18 | 50.26163 | 8.38966 | 19219 ft | 385 kts | 17° |
| 2026-05-07 00:18 | 50.28727 | 8.40316 | 20034 ft | 390 kts | 18° |
| 2026-05-07 00:18 | 50.31309 | 8.41688 | 20848 ft | 395 kts | 18° |
| 2026-05-07 00:19 | 50.33896 | 8.43095 | 21629 ft | 401 kts | 19° |
| 2026-05-07 00:19 | 50.36568 | 8.44558 | 22437 ft | 406 kts | 19° |
| 2026-05-07 00:19 | 50.39256 | 8.46028 | 23225 ft | 411 kts | 19° |
| 2026-05-07 00:19 | 50.41989 | 8.47524 | 23939 ft | 416 kts | 19° |
| 2026-05-07 00:20 | 50.44726 | 8.49022 | 24641 ft | 419 kts | 19° |
| 2026-05-07 00:20 | 50.47490 | 8.50537 | 25312 ft | 422 kts | 19° |
| 2026-05-07 00:20 | 50.50292 | 8.51988 | 25968 ft | 426 kts | 17° |
| 2026-05-07 00:20 | 50.53138 | 8.53330 | 26589 ft | 430 kts | 16° |
| 2026-05-07 00:21 | 50.56025 | 8.54667 | 27220 ft | 433 kts | 16° |
| 2026-05-07 00:21 | 50.58926 | 8.56024 | 27800 ft | 437 kts | 17° |
| 2026-05-07 00:21 | 50.61817 | 8.57394 | 28360 ft | 441 kts | 17° |
| 2026-05-07 00:21 | 50.64760 | 8.58801 | 28904 ft | 445 kts | 17° |
| 2026-05-07 00:22 | 50.67730 | 8.60229 | 29428 ft | 449 kts | 17° |
| 2026-05-07 00:22 | 50.70739 | 8.61680 | 29936 ft | 452 kts | 17° |
| 2026-05-07 00:22 | 50.73750 | 8.63134 | 30357 ft | 456 kts | 17° |
| 2026-05-07 00:22 | 50.76801 | 8.64609 | 30775 ft | 461 kts | 17° |
| 2026-05-07 00:23 | 50.79791 | 8.66364 | 31226 ft | 463 kts | 26° |
| 2026-05-07 00:23 | 50.82498 | 8.69016 | 31740 ft | 463 kts | 38° |
| 2026-05-07 00:23 | 50.84827 | 8.72531 | 32295 ft | 463 kts | 51° |
| 2026-05-07 00:23 | 50.86756 | 8.76531 | 32821 ft | 462 kts | 54° |
| 2026-05-07 00:24 | 50.88658 | 8.80626 | 33370 ft | 462 kts | 54° |
| 2026-05-07 00:24 | 50.90570 | 8.84718 | 33898 ft | 463 kts | 54° |
| 2026-05-07 00:24 | 50.92497 | 8.88801 | 34315 ft | 463 kts | 54° |
| 2026-05-07 00:24 | 50.94444 | 8.92901 | 34681 ft | 465 kts | 54° |
| 2026-05-07 00:25 | 50.96380 | 8.96969 | 35069 ft | 466 kts | 54° |
| 2026-05-07 00:25 | 50.98344 | 9.01097 | 35455 ft | 467 kts | 54° |
| 2026-05-07 00:25 | 51.00311 | 9.05236 | 35817 ft | 469 kts | 54° |
| 2026-05-07 00:25 | 51.02247 | 9.09315 | 36191 ft | 469 kts | 54° |
| 2026-05-07 00:26 | 51.04232 | 9.13508 | 36555 ft | 470 kts | 54° |
| 2026-05-07 00:26 | 51.06180 | 9.17628 | 36905 ft | 472 kts | 54° |
| 2026-05-07 00:26 | 51.08148 | 9.21788 | 37258 ft | 473 kts | 52° |
| 2026-05-07 00:26 | 51.10402 | 9.25571 | 37578 ft | 475 kts | 40° |
| 2026-05-07 00:27 | 51.13105 | 9.28580 | 37883 ft | 476 kts | 28° |
| 2026-05-07 00:27 | 51.16166 | 9.30681 | 38219 ft | 476 kts | 15° |
| 2026-05-07 00:27 | 51.19383 | 9.31834 | 38545 ft | 475 kts | 8° |
| 2026-05-07 00:27 | 51.22640 | 9.32643 | 38826 ft | 475 kts | 7° |
| 2026-05-07 00:28 | 51.25891 | 9.33491 | 38948 ft | 473 kts | 8° |
| 2026-05-07 00:28 | 51.29143 | 9.34460 | 38999 ft | 473 kts | 10° |
| 2026-05-07 00:28 | 51.35569 | 9.36607 | 39002 ft | 473 kts | 11° |
| 2026-05-07 00:29 | 51.41953 | 9.38837 | 39003 ft | 473 kts | 11° |
| 2026-05-07 00:30 | 51.54823 | 9.43354 | 39000 ft | 473 kts | 11° |
| 2026-05-07 00:30 | 51.61239 | 9.45612 | 38997 ft | 473 kts | 11° |
| 2026-05-07 00:31 | 51.67658 | 9.47878 | 38993 ft | 473 kts | 11° |
| 2026-05-07 00:31 | 51.74088 | 9.50153 | 38991 ft | 473 kts | 11° |
| 2026-05-07 00:32 | 51.80476 | 9.52420 | 38993 ft | 473 kts | 11° |
| 2026-05-07 00:32 | 51.86753 | 9.55636 | 38991 ft | 474 kts | 20° |
| 2026-05-07 00:33 | 51.92900 | 9.59407 | 38995 ft | 474 kts | 19° |
| 2026-05-07 00:33 | 51.99082 | 9.63175 | 38997 ft | 474 kts | 19° |
| 2026-05-07 00:34 | 52.05257 | 9.66963 | 38998 ft | 475 kts | 20° |
| 2026-05-07 00:34 | 52.11391 | 9.70745 | 39002 ft | 475 kts | 20° |
| 2026-05-07 00:35 | 52.17561 | 9.74561 | 39011 ft | 475 kts | 20° |
| 2026-05-07 00:35 | 52.23734 | 9.78390 | 39018 ft | 475 kts | 20° |
| 2026-05-07 00:36 | 52.29916 | 9.82235 | 39023 ft | 475 kts | 20° |
| 2026-05-07 00:36 | 52.36041 | 9.86057 | 39028 ft | 475 kts | 20° |
| 2026-05-07 00:37 | 52.42197 | 9.89909 | 39028 ft | 475 kts | 20° |
| 2026-05-07 00:37 | 52.48329 | 9.93759 | 39031 ft | 475 kts | 20° |
| 2026-05-07 00:38 | 52.54505 | 9.97647 | 39033 ft | 475 kts | 20° |
| 2026-05-07 00:38 | 52.60638 | 10.01520 | 39032 ft | 475 kts | 20° |
| 2026-05-07 00:39 | 52.66803 | 10.05424 | 39033 ft | 475 kts | 20° |
| 2026-05-07 00:39 | 52.72955 | 10.09333 | 39031 ft | 475 kts | 20° |
| 2026-05-07 00:40 | 52.79127 | 10.13266 | 39029 ft | 475 kts | 20° |
| 2026-05-07 00:40 | 52.85282 | 10.17200 | 39030 ft | 475 kts | 20° |
| 2026-05-07 00:41 | 52.91420 | 10.21135 | 39032 ft | 475 kts | 20° |
| 2026-05-07 00:41 | 52.97548 | 10.25076 | 39033 ft | 474 kts | 20° |
| 2026-05-07 00:42 | 53.03720 | 10.29057 | 39040 ft | 474 kts | 20° |
| 2026-05-07 00:42 | 53.09854 | 10.33027 | 39025 ft | 474 kts | 20° |
| 2026-05-07 00:43 | 53.15967 | 10.36994 | 39035 ft | 474 kts | 20° |
| 2026-05-07 00:43 | 53.22099 | 10.40986 | 39045 ft | 474 kts | 20° |
| 2026-05-07 00:44 | 53.28239 | 10.44995 | 39042 ft | 474 kts | 20° |
| 2026-05-07 00:44 | 53.34374 | 10.49014 | 39050 ft | 474 kts | 20° |
| 2026-05-07 00:45 | 53.40526 | 10.53057 | 39055 ft | 474 kts | 20° |
| 2026-05-07 00:45 | 53.46641 | 10.57087 | 39052 ft | 474 kts | 20° |
| 2026-05-07 00:46 | 53.52778 | 10.61145 | 39064 ft | 475 kts | 20° |
| 2026-05-07 00:46 | 53.58933 | 10.65228 | 39068 ft | 475 kts | 20° |
| 2026-05-07 00:47 | 53.65039 | 10.69290 | 39080 ft | 475 kts | 20° |
| 2026-05-07 00:47 | 53.71208 | 10.73407 | 39089 ft | 475 kts | 20° |
| 2026-05-07 00:48 | 53.77314 | 10.77495 | 39083 ft | 475 kts | 20° |
| 2026-05-07 00:48 | 53.83476 | 10.81634 | 39085 ft | 476 kts | 20° |
| 2026-05-07 00:49 | 53.89587 | 10.85751 | 39086 ft | 476 kts | 20° |
| 2026-05-07 00:49 | 53.95762 | 10.89925 | 39085 ft | 476 kts | 20° |
| 2026-05-07 00:50 | 54.01913 | 10.94096 | 39088 ft | 476 kts | 20° |
| 2026-05-07 00:50 | 54.08032 | 10.98258 | 39081 ft | 476 kts | 20° |
| 2026-05-07 00:51 | 54.14161 | 11.02441 | 39084 ft | 476 kts | 20° |
| 2026-05-07 00:51 | 54.20308 | 11.06649 | 39086 ft | 476 kts | 20° |
| 2026-05-07 00:52 | 54.26415 | 11.10844 | 39085 ft | 476 kts | 20° |
| 2026-05-07 00:52 | 54.32563 | 11.15079 | 39090 ft | 476 kts | 20° |
| 2026-05-07 00:53 | 54.38688 | 11.19313 | 39091 ft | 476 kts | 20° |
| 2026-05-07 00:53 | 54.44846 | 11.23583 | 39096 ft | 476 kts | 20° |
| 2026-05-07 00:54 | 54.50987 | 11.27852 | 39098 ft | 476 kts | 20° |
| 2026-05-07 00:54 | 54.57176 | 11.31798 | 39103 ft | 474 kts | 11° |
| 2026-05-07 00:55 | 54.63579 | 11.34165 | 39101 ft | 473 kts | 9° |
| 2026-05-07 00:55 | 54.70013 | 11.36576 | 39105 ft | 473 kts | 9° |
| 2026-05-07 00:56 | 54.76463 | 11.39000 | 39106 ft | 474 kts | 9° |
| 2026-05-07 00:56 | 54.82864 | 11.41408 | 39117 ft | 474 kts | 9° |
| 2026-05-07 00:57 | 54.89294 | 11.43834 | 39120 ft | 474 kts | 9° |
| 2026-05-07 00:57 | 54.95734 | 11.46279 | 39125 ft | 474 kts | 11° |
| 2026-05-07 00:58 | 55.02000 | 11.50025 | 39124 ft | 477 kts | 18° |
| 2026-05-07 00:58 | 55.08225 | 11.54057 | 39126 ft | 477 kts | 18° |
| 2026-05-07 00:59 | 55.17524 | 11.60101 | 39129 ft | 477 kts | 18° |
| 2026-05-07 01:00 | 55.23733 | 11.64172 | 39134 ft | 477 kts | 18° |
| 2026-05-07 01:00 | 55.29952 | 11.68265 | 39122 ft | 477 kts | 18° |
| 2026-05-07 01:01 | 55.36186 | 11.72380 | 39127 ft | 477 kts | 18° |
| 2026-05-07 01:01 | 55.42388 | 11.76489 | 39138 ft | 478 kts | 18° |
| 2026-05-07 01:02 | 55.48566 | 11.80595 | 39135 ft | 478 kts | 18° |
| 2026-05-07 01:02 | 55.54799 | 11.84751 | 39134 ft | 478 kts | 18° |
| 2026-05-07 01:03 | 55.61023 | 11.88916 | 39139 ft | 478 kts | 18° |
| 2026-05-07 01:03 | 55.67202 | 11.93065 | 39142 ft | 478 kts | 18° |
| 2026-05-07 01:04 | 55.73427 | 11.97258 | 39142 ft | 479 kts | 18° |
| 2026-05-07 01:04 | 55.79646 | 12.01463 | 39140 ft | 479 kts | 18° |
| 2026-05-07 01:05 | 55.85868 | 12.05684 | 39139 ft | 479 kts | 18° |
| 2026-05-07 01:05 | 55.92089 | 12.09917 | 39140 ft | 479 kts | 18° |
| 2026-05-07 01:06 | 55.98278 | 12.14145 | 39140 ft | 479 kts | 18° |
| 2026-05-07 01:06 | 56.04525 | 12.18427 | 39135 ft | 479 kts | 18° |
| 2026-05-07 01:07 | 56.10714 | 12.22683 | 39139 ft | 479 kts | 18° |
| 2026-05-07 01:07 | 56.16938 | 12.26979 | 39135 ft | 479 kts | 18° |
| 2026-05-07 01:08 | 56.23163 | 12.31290 | 39135 ft | 479 kts | 18° |
| 2026-05-07 01:08 | 56.29305 | 12.35944 | 39130 ft | 480 kts | 22° |
| 2026-05-07 01:09 | 56.35370 | 12.40834 | 39133 ft | 480 kts | 21° |
| 2026-05-07 01:09 | 56.41483 | 12.45732 | 39131 ft | 480 kts | 21° |
| 2026-05-07 01:10 | 56.47570 | 12.50630 | 39131 ft | 481 kts | 21° |
| 2026-05-07 01:10 | 56.53653 | 12.55544 | 39132 ft | 481 kts | 21° |
| 2026-05-07 01:11 | 56.59753 | 12.60492 | 39134 ft | 481 kts | 21° |
| 2026-05-07 01:11 | 56.65866 | 12.65468 | 39137 ft | 481 kts | 21° |
| 2026-05-07 01:12 | 56.71963 | 12.70449 | 39139 ft | 482 kts | 21° |
| 2026-05-07 01:12 | 56.78093 | 12.75476 | 39140 ft | 482 kts | 21° |
| 2026-05-07 01:13 | 56.84169 | 12.80484 | 39138 ft | 482 kts | 21° |
| 2026-05-07 01:13 | 56.90265 | 12.85527 | 39138 ft | 482 kts | 21° |
| 2026-05-07 01:14 | 56.96385 | 12.90609 | 39136 ft | 483 kts | 22° |
| 2026-05-07 01:14 | 57.02506 | 12.95710 | 39132 ft | 483 kts | 22° |
| 2026-05-07 01:15 | 57.08582 | 13.00792 | 39131 ft | 483 kts | 22° |
| 2026-05-07 01:15 | 57.13685 | 13.05075 | 39128 ft | 482 kts | 22° |
| 2026-05-07 01:16 | 57.20790 | 13.11060 | 39128 ft | 482 kts | 22° |
| 2026-05-07 01:16 | 57.26890 | 13.16217 | 39126 ft | 482 kts | 22° |
| 2026-05-07 01:17 | 57.31961 | 13.20519 | 39125 ft | 482 kts | 22° |
| 2026-05-07 01:17 | 57.38048 | 13.25701 | 39122 ft | 482 kts | 22° |
| 2026-05-07 01:18 | 57.44156 | 13.30919 | 39123 ft | 482 kts | 22° |
| 2026-05-07 01:18 | 57.50240 | 13.36137 | 39121 ft | 483 kts | 22° |
| 2026-05-07 01:19 | 57.56301 | 13.41354 | 39113 ft | 483 kts | 22° |
| 2026-05-07 01:19 | 57.62403 | 13.46627 | 39116 ft | 483 kts | 22° |
| 2026-05-07 01:20 | 57.68493 | 13.51907 | 39112 ft | 483 kts | 22° |
| 2026-05-07 01:20 | 57.74575 | 13.57200 | 39109 ft | 483 kts | 22° |
| 2026-05-07 01:21 | 57.80635 | 13.62494 | 39105 ft | 483 kts | 22° |
| 2026-05-07 01:21 | 57.86727 | 13.67836 | 39103 ft | 483 kts | 22° |
| 2026-05-07 01:22 | 57.92818 | 13.73197 | 39104 ft | 484 kts | 22° |
| 2026-05-07 01:22 | 57.98920 | 13.78588 | 39104 ft | 484 kts | 22° |
| 2026-05-07 01:23 | 58.04966 | 13.83949 | 39110 ft | 484 kts | 22° |
| 2026-05-07 01:23 | 58.11054 | 13.89368 | 39110 ft | 484 kts | 22° |
| 2026-05-07 01:24 | 58.17174 | 13.94838 | 39110 ft | 484 kts | 22° |
| 2026-05-07 01:24 | 58.23232 | 14.00272 | 39104 ft | 484 kts | 22° |
| 2026-05-07 01:25 | 58.29319 | 14.05752 | 39103 ft | 484 kts | 22° |
| 2026-05-07 01:25 | 58.35386 | 14.11236 | 39098 ft | 484 kts | 22° |
| 2026-05-07 01:26 | 58.41482 | 14.16766 | 39090 ft | 484 kts | 22° |
| 2026-05-07 01:26 | 58.47524 | 14.22270 | 39085 ft | 484 kts | 22° |
| 2026-05-07 01:27 | 58.53602 | 14.27827 | 39086 ft | 485 kts | 22° |
| 2026-05-07 01:27 | 58.59688 | 14.33412 | 39086 ft | 485 kts | 22° |
| 2026-05-07 01:28 | 58.65778 | 14.39025 | 39089 ft | 485 kts | 22° |
| 2026-05-07 01:28 | 58.71844 | 14.44636 | 39091 ft | 485 kts | 22° |
| 2026-05-07 01:29 | 58.77928 | 14.50286 | 39097 ft | 485 kts | 22° |
| 2026-05-07 01:29 | 58.83977 | 14.55925 | 39101 ft | 485 kts | 22° |
| 2026-05-07 01:30 | 58.90045 | 14.61603 | 39106 ft | 486 kts | 22° |
| 2026-05-07 01:30 | 58.96139 | 14.67330 | 39108 ft | 486 kts | 22° |
| 2026-05-07 01:31 | 59.02217 | 14.73063 | 39110 ft | 486 kts | 22° |
| 2026-05-07 01:31 | 59.08247 | 14.78776 | 39100 ft | 486 kts | 22° |
| 2026-05-07 01:32 | 59.14334 | 14.84564 | 39104 ft | 486 kts | 23° |
| 2026-05-07 01:32 | 59.20402 | 14.90356 | 39109 ft | 486 kts | 23° |
| 2026-05-07 01:33 | 59.26467 | 14.96169 | 39106 ft | 486 kts | 23° |
| 2026-05-07 01:33 | 59.32536 | 15.02009 | 39111 ft | 486 kts | 23° |
| 2026-05-07 01:34 | 59.38601 | 15.07868 | 39111 ft | 486 kts | 23° |
| 2026-05-07 01:34 | 59.44642 | 15.13727 | 39111 ft | 486 kts | 23° |
| 2026-05-07 01:35 | 59.50705 | 15.19632 | 39113 ft | 487 kts | 23° |
| 2026-05-07 01:35 | 59.56758 | 15.25550 | 39120 ft | 487 kts | 23° |
| 2026-05-07 01:36 | 59.62797 | 15.31479 | 39124 ft | 487 kts | 23° |
| 2026-05-07 01:36 | 59.68850 | 15.37445 | 39125 ft | 487 kts | 23° |
| 2026-05-07 01:37 | 59.74908 | 15.43441 | 39123 ft | 487 kts | 23° |
| 2026-05-07 01:37 | 59.80971 | 15.49465 | 39126 ft | 487 kts | 23° |
| 2026-05-07 01:38 | 59.86985 | 15.55467 | 39123 ft | 487 kts | 23° |
| 2026-05-07 01:38 | 59.93068 | 15.61562 | 39128 ft | 487 kts | 23° |
| 2026-05-07 01:39 | 59.99084 | 15.67614 | 39126 ft | 487 kts | 23° |
| 2026-05-07 01:39 | 60.05137 | 15.73729 | 39127 ft | 487 kts | 23° |
| 2026-05-07 01:40 | 60.11173 | 15.79851 | 39122 ft | 487 kts | 23° |
| 2026-05-07 01:40 | 60.17174 | 15.85963 | 39116 ft | 486 kts | 23° |
| 2026-05-07 01:41 | 60.23188 | 15.92112 | 39112 ft | 486 kts | 24° |
| 2026-05-07 01:41 | 60.29212 | 15.98298 | 39106 ft | 486 kts | 24° |
| 2026-05-07 01:42 | 60.35256 | 16.04531 | 39111 ft | 486 kts | 24° |
| 2026-05-07 01:42 | 60.41269 | 16.10758 | 39111 ft | 486 kts | 24° |
| 2026-05-07 01:43 | 60.47263 | 16.16991 | 39114 ft | 487 kts | 24° |
| 2026-05-07 01:43 | 60.53287 | 16.23283 | 39118 ft | 487 kts | 24° |
| 2026-05-07 01:44 | 60.59315 | 16.29604 | 39120 ft | 488 kts | 24° |
| 2026-05-07 01:44 | 60.65335 | 16.35944 | 39120 ft | 488 kts | 24° |
| 2026-05-07 01:45 | 60.71362 | 16.42319 | 39121 ft | 488 kts | 24° |
| 2026-05-07 01:45 | 60.77354 | 16.48683 | 39121 ft | 488 kts | 24° |
| 2026-05-07 01:46 | 60.83370 | 16.55100 | 39120 ft | 489 kts | 24° |
| 2026-05-07 01:46 | 60.89397 | 16.61554 | 39120 ft | 489 kts | 24° |
| 2026-05-07 01:47 | 60.95431 | 16.68045 | 39117 ft | 489 kts | 24° |
| 2026-05-07 01:47 | 61.01444 | 16.74542 | 39121 ft | 489 kts | 24° |
| 2026-05-07 01:48 | 61.07421 | 16.81028 | 39110 ft | 489 kts | 24° |
| 2026-05-07 01:48 | 61.13427 | 16.87574 | 39111 ft | 488 kts | 24° |
| 2026-05-07 01:49 | 61.19439 | 16.94154 | 39112 ft | 489 kts | 25° |
| 2026-05-07 01:49 | 61.25449 | 17.00762 | 39113 ft | 489 kts | 25° |
| 2026-05-07 01:50 | 61.31418 | 17.07351 | 39110 ft | 489 kts | 25° |
| 2026-05-07 01:50 | 61.37408 | 17.13994 | 39108 ft | 488 kts | 25° |
| 2026-05-07 01:51 | 61.43419 | 17.20690 | 39108 ft | 488 kts | 25° |
| 2026-05-07 01:51 | 61.49404 | 17.27385 | 39108 ft | 488 kts | 25° |
| 2026-05-07 01:52 | 61.55354 | 17.34071 | 39113 ft | 488 kts | 25° |
| 2026-05-07 01:52 | 61.61357 | 17.40846 | 39112 ft | 488 kts | 25° |
| 2026-05-07 01:53 | 61.67329 | 17.47617 | 39113 ft | 488 kts | 25° |
| 2026-05-07 01:53 | 61.73264 | 17.54374 | 39114 ft | 487 kts | 25° |
| 2026-05-07 01:54 | 61.79229 | 17.61196 | 39110 ft | 487 kts | 25° |
| 2026-05-07 01:54 | 61.85190 | 17.68043 | 39111 ft | 487 kts | 25° |
| 2026-05-07 01:55 | 61.91133 | 17.74902 | 39114 ft | 487 kts | 25° |
| 2026-05-07 01:55 | 61.97043 | 17.81752 | 39112 ft | 487 kts | 26° |
| 2026-05-07 01:56 | 62.02978 | 17.88662 | 39120 ft | 487 kts | 26° |
| 2026-05-07 01:56 | 62.08915 | 17.95605 | 39119 ft | 487 kts | 26° |
| 2026-05-07 01:57 | 62.14865 | 18.02594 | 39115 ft | 487 kts | 26° |
| 2026-05-07 01:57 | 62.20752 | 18.09542 | 39120 ft | 487 kts | 26° |
| 2026-05-07 01:58 | 62.26682 | 18.16571 | 39112 ft | 487 kts | 26° |
| 2026-05-07 01:58 | 62.32596 | 18.23613 | 39122 ft | 487 kts | 26° |
| 2026-05-07 01:59 | 62.38525 | 18.30706 | 39113 ft | 487 kts | 26° |
| 2026-05-07 01:59 | 62.44414 | 18.37783 | 39121 ft | 487 kts | 26° |
| 2026-05-07 02:00 | 62.50359 | 18.44959 | 39122 ft | 488 kts | 26° |
| 2026-05-07 02:00 | 62.56244 | 18.52096 | 39125 ft | 488 kts | 26° |
| 2026-05-07 02:01 | 62.62168 | 18.59314 | 39125 ft | 488 kts | 26° |
| 2026-05-07 02:01 | 62.68087 | 18.66557 | 39126 ft | 488 kts | 26° |
| 2026-05-07 02:02 | 62.74005 | 18.73835 | 39127 ft | 488 kts | 26° |
| 2026-05-07 02:02 | 62.79877 | 18.81088 | 39131 ft | 488 kts | 26° |
| 2026-05-07 02:03 | 62.85794 | 18.88432 | 39127 ft | 488 kts | 27° |
| 2026-05-07 02:03 | 62.91695 | 18.95789 | 39128 ft | 488 kts | 27° |
| 2026-05-07 02:04 | 62.97578 | 19.03159 | 39128 ft | 488 kts | 27° |
| 2026-05-07 02:04 | 63.03452 | 19.10552 | 39130 ft | 488 kts | 27° |
| 2026-05-07 02:05 | 63.09329 | 19.17984 | 39126 ft | 487 kts | 27° |
| 2026-05-07 02:05 | 63.15193 | 19.25435 | 39125 ft | 487 kts | 27° |
| 2026-05-07 02:06 | 63.21068 | 19.32935 | 39118 ft | 487 kts | 27° |
| 2026-05-07 02:06 | 63.26924 | 19.40445 | 39118 ft | 486 kts | 27° |
| 2026-05-07 02:07 | 63.32773 | 19.47983 | 39117 ft | 486 kts | 27° |
| 2026-05-07 02:07 | 63.41509 | 19.59308 | 39117 ft | 486 kts | 27° |
| 2026-05-07 02:08 | 63.47338 | 19.66911 | 39120 ft | 486 kts | 27° |
| 2026-05-07 02:08 | 63.53168 | 19.74550 | 39122 ft | 486 kts | 27° |
| 2026-05-07 02:09 | 63.58997 | 19.82224 | 39119 ft | 486 kts | 27° |
| 2026-05-07 02:09 | 63.64791 | 19.89888 | 39116 ft | 486 kts | 27° |
| 2026-05-07 02:10 | 63.70602 | 19.97612 | 39113 ft | 486 kts | 28° |
| 2026-05-07 02:10 | 63.76415 | 20.05377 | 39114 ft | 486 kts | 28° |
| 2026-05-07 02:11 | 63.82227 | 20.13177 | 39113 ft | 486 kts | 28° |
| 2026-05-07 02:11 | 63.88036 | 20.21010 | 39112 ft | 486 kts | 28° |
| 2026-05-07 02:12 | 63.93807 | 20.28832 | 39114 ft | 486 kts | 28° |
| 2026-05-07 02:12 | 63.99606 | 20.36729 | 39119 ft | 485 kts | 28° |
| 2026-05-07 02:13 | 64.05402 | 20.44661 | 39126 ft | 485 kts | 28° |
| 2026-05-07 02:13 | 64.11147 | 20.52562 | 39122 ft | 485 kts | 28° |
| 2026-05-07 02:14 | 64.16928 | 20.60551 | 39119 ft | 485 kts | 28° |
| 2026-05-07 02:14 | 64.22679 | 20.68536 | 39120 ft | 485 kts | 28° |
| 2026-05-07 02:15 | 64.28472 | 20.76622 | 39125 ft | 485 kts | 28° |
| 2026-05-07 02:15 | 64.34244 | 20.84717 | 39117 ft | 485 kts | 28° |
| 2026-05-07 02:16 | 64.39984 | 20.92808 | 39118 ft | 485 kts | 29° |
| 2026-05-07 02:16 | 64.45719 | 21.00932 | 39113 ft | 485 kts | 29° |
| 2026-05-07 02:17 | 64.51463 | 21.09108 | 39112 ft | 485 kts | 29° |
| 2026-05-07 02:17 | 64.57201 | 21.17318 | 39111 ft | 485 kts | 29° |
| 2026-05-07 02:18 | 64.62935 | 21.25564 | 39113 ft | 484 kts | 29° |
| 2026-05-07 02:18 | 64.68637 | 21.33805 | 39112 ft | 484 kts | 30° |
| 2026-05-07 02:19 | 64.74395 | 21.42165 | 39110 ft | 484 kts | 30° |
| 2026-05-07 02:19 | 64.80070 | 21.50434 | 39107 ft | 483 kts | 30° |
| 2026-05-07 02:20 | 64.85776 | 21.58782 | 39095 ft | 483 kts | 30° |
| 2026-05-07 02:20 | 64.91465 | 21.67146 | 39103 ft | 483 kts | 30° |
| 2026-05-07 02:21 | 64.97168 | 21.75573 | 39093 ft | 483 kts | 30° |
| 2026-05-07 02:21 | 65.02816 | 21.83962 | 39092 ft | 483 kts | 30° |
| 2026-05-07 02:22 | 65.08487 | 21.92426 | 39092 ft | 482 kts | 30° |
| 2026-05-07 02:22 | 65.14147 | 22.01041 | 39090 ft | 483 kts | 31° |
| 2026-05-07 02:23 | 65.19938 | 22.09014 | 39094 ft | 481 kts | 26° |
| 2026-05-07 02:23 | 65.25801 | 22.16755 | 39088 ft | 481 kts | 27° |
| 2026-05-07 02:24 | 65.31612 | 22.24650 | 39091 ft | 482 kts | 27° |
| 2026-05-07 02:24 | 65.37389 | 22.32606 | 39090 ft | 482 kts | 28° |
| 2026-05-07 02:25 | 65.43187 | 22.40638 | 39094 ft | 481 kts | 28° |
| 2026-05-07 02:25 | 65.48989 | 22.48715 | 39090 ft | 481 kts | 28° |
| 2026-05-07 02:26 | 65.54776 | 22.56811 | 39092 ft | 481 kts | 28° |
| 2026-05-07 02:26 | 65.60534 | 22.64909 | 39093 ft | 481 kts | 28° |
| 2026-05-07 02:27 | 65.66307 | 22.73069 | 39094 ft | 481 kts | 28° |
| 2026-05-07 02:27 | 65.72095 | 22.81295 | 39097 ft | 481 kts | 28° |
| 2026-05-07 02:28 | 65.77674 | 22.90261 | 39094 ft | 483 kts | 38° |
| 2026-05-07 02:28 | 65.82597 | 23.01357 | 39093 ft | 483 kts | 41° |
| 2026-05-07 02:29 | 65.87515 | 23.12441 | 39097 ft | 483 kts | 41° |
| 2026-05-07 02:29 | 65.92433 | 23.23645 | 39094 ft | 483 kts | 41° |
| 2026-05-07 02:30 | 65.97325 | 23.34891 | 39102 ft | 483 kts | 42° |
| 2026-05-07 02:30 | 66.02232 | 23.46245 | 39101 ft | 483 kts | 42° |
| 2026-05-07 02:31 | 66.07083 | 23.57528 | 39102 ft | 483 kts | 42° |
| 2026-05-07 02:31 | 66.11961 | 23.68937 | 39105 ft | 483 kts | 42° |
| 2026-05-07 02:32 | 66.16607 | 23.80936 | 39104 ft | 484 kts | 52° |
| 2026-05-07 02:32 | 66.20010 | 23.95285 | 39110 ft | 485 kts | 65° |
| 2026-05-07 02:33 | 66.22880 | 24.10292 | 39109 ft | 485 kts | 64° |
| 2026-05-07 02:33 | 66.25795 | 24.25519 | 39109 ft | 485 kts | 64° |
| 2026-05-07 02:34 | 66.28635 | 24.40569 | 39107 ft | 485 kts | 65° |
| 2026-05-07 02:34 | 66.31482 | 24.55803 | 39112 ft | 486 kts | 65° |
| 2026-05-07 02:35 | 66.34305 | 24.71026 | 39113 ft | 486 kts | 65° |
| 2026-05-07 02:35 | 66.37171 | 24.86155 | 39119 ft | 486 kts | 64° |
| 2026-05-07 02:36 | 66.40062 | 25.01365 | 39121 ft | 486 kts | 64° |
| 2026-05-07 02:36 | 66.42933 | 25.16653 | 39110 ft | 486 kts | 65° |
| 2026-05-07 02:37 | 66.45848 | 25.31883 | 39106 ft | 485 kts | 59° |
| 2026-05-07 02:37 | 66.47773 | 25.38796 | 39099 ft | 484 kts | 48° |
| 2026-05-07 02:37 | 66.50105 | 25.44720 | 39091 ft | 482 kts | 38° |
| 2026-05-07 02:38 | 66.55440 | 25.54803 | 39089 ft | 481 kts | 35° |
| 2026-05-07 02:38 | 66.60781 | 25.64909 | 39084 ft | 481 kts | 35° |
| 2026-05-07 02:39 | 66.65402 | 25.77100 | 39084 ft | 484 kts | 57° |
| 2026-05-07 02:39 | 66.66912 | 25.84669 | 39086 ft | 484 kts | 69° |
| 2026-05-07 02:39 | 66.67800 | 25.92847 | 39082 ft | 484 kts | 82° |
| 2026-05-07 02:40 | 66.68026 | 26.01250 | 39081 ft | 482 kts | 94° |
| 2026-05-07 02:40 | 66.67593 | 26.09525 | 39087 ft | 479 kts | 105° |
| 2026-05-07 02:40 | 66.66509 | 26.17437 | 39072 ft | 476 kts | 118° |
| 2026-05-07 02:40 | 66.64831 | 26.24549 | 39071 ft | 471 kts | 130° |
| 2026-05-07 02:41 | 66.62635 | 26.30579 | 39085 ft | 466 kts | 142° |
| 2026-05-07 02:41 | 66.60013 | 26.35294 | 39085 ft | 461 kts | 154° |
| 2026-05-07 02:41 | 66.57086 | 26.38485 | 39088 ft | 455 kts | 167° |
| 2026-05-07 02:41 | 66.54017 | 26.40013 | 39087 ft | 450 kts | 179° |
| 2026-05-07 02:42 | 66.50910 | 26.39852 | 39084 ft | 444 kts | 191° |
| 2026-05-07 02:42 | 66.47938 | 26.38027 | 39089 ft | 439 kts | 204° |
| 2026-05-07 02:42 | 66.45218 | 26.34633 | 39091 ft | 435 kts | 216° |
| 2026-05-07 02:42 | 66.42922 | 26.29933 | 39096 ft | 432 kts | 228° |
| 2026-05-07 02:43 | 66.41072 | 26.23956 | 39097 ft | 430 kts | 240° |
| 2026-05-07 02:43 | 66.39841 | 26.17251 | 39098 ft | 430 kts | 252° |
| 2026-05-07 02:43 | 66.38408 | 26.02792 | 39103 ft | 431 kts | 257° |
| 2026-05-07 02:44 | 66.37141 | 25.88153 | 39107 ft | 432 kts | 257° |
| 2026-05-07 02:44 | 66.35737 | 25.73564 | 39111 ft | 432 kts | 249° |
| 2026-05-07 02:45 | 66.34386 | 25.66867 | 39114 ft | 433 kts | 237° |
| 2026-05-07 02:45 | 66.32476 | 25.61062 | 39117 ft | 435 kts | 225° |
| 2026-05-07 02:45 | 66.30128 | 25.56472 | 39122 ft | 438 kts | 213° |
| 2026-05-07 02:45 | 66.27368 | 25.53174 | 39123 ft | 442 kts | 201° |
| 2026-05-07 02:46 | 66.24369 | 25.51429 | 39130 ft | 446 kts | 189° |
| 2026-05-07 02:46 | 66.21260 | 25.51318 | 39131 ft | 452 kts | 177° |
| 2026-05-07 02:46 | 66.15021 | 25.53346 | 39125 ft | 448 kts | 185° |
| 2026-05-07 02:47 | 66.09034 | 25.50452 | 39127 ft | 440 kts | 202° |
| 2026-05-07 02:47 | 66.03399 | 25.44735 | 39128 ft | 438 kts | 207° |
| 2026-05-07 02:48 | 65.97863 | 25.38518 | 39130 ft | 438 kts | 207° |
| 2026-05-07 02:48 | 65.92334 | 25.32332 | 39123 ft | 437 kts | 207° |
| 2026-05-07 02:49 | 65.86799 | 25.26178 | 39115 ft | 437 kts | 207° |
| 2026-05-07 02:49 | 65.81282 | 25.20047 | 39111 ft | 436 kts | 207° |
| 2026-05-07 02:50 | 65.75788 | 25.13934 | 39111 ft | 436 kts | 207° |
| 2026-05-07 02:50 | 65.70287 | 25.07814 | 39099 ft | 435 kts | 207° |
| 2026-05-07 02:51 | 65.64789 | 25.01697 | 39105 ft | 435 kts | 207° |
| 2026-05-07 02:51 | 65.59289 | 24.95577 | 39099 ft | 434 kts | 207° |
| 2026-05-07 02:52 | 65.53811 | 24.89477 | 39098 ft | 433 kts | 207° |
| 2026-05-07 02:52 | 65.49269 | 24.84418 | 39096 ft | 433 kts | 207° |